createdAt,value
2019-05-23T00:01:05.504Z,99.90
2019-05-23T00:03:37.413Z,99.90
2019-05-23T00:06:14.970Z,99.90
2019-05-23T00:08:52.527Z,99.90
2019-05-23T00:11:32.066Z,99.90
2019-05-23T00:14:32.265Z,99.90
2019-05-23T00:17:04.087Z,99.90
2019-05-23T00:19:34.242Z,99.90
2019-05-23T00:22:07.090Z,99.90
2019-05-23T00:24:39.129Z,99.90
2019-05-23T00:27:10.097Z,99.90
2019-05-23T00:29:40.611Z,99.90
2019-05-23T00:32:21.982Z,99.90
2019-05-23T00:34:53.722Z,99.90
2019-05-23T00:37:27.457Z,99.90
2019-05-23T00:39:57.700Z,99.90
2019-05-23T00:42:28.569Z,99.90
2019-05-23T00:45:00.882Z,99.90
2019-05-23T00:47:31.719Z,99.90
2019-05-23T00:50:05.989Z,99.90
2019-05-23T00:52:42.916Z,99.90
2019-05-23T00:55:15.075Z,99.90
2019-05-23T00:57:45.168Z,99.90
2019-05-23T01:00:19.385Z,99.90
2019-05-23T01:02:49.814Z,99.90
2019-05-23T01:05:23.011Z,99.90
2019-05-23T01:07:53.889Z,99.90
2019-05-23T01:10:28.049Z,99.90
2019-05-23T01:13:02.676Z,99.90
2019-05-23T01:15:32.832Z,99.90
2019-05-23T01:18:03.312Z,99.90
2019-05-23T01:20:54.255Z,99.90
2019-05-23T01:23:26.926Z,99.90
2019-05-23T01:26:08.363Z,99.90
2019-05-23T01:28:48.002Z,99.90
2019-05-23T01:31:34.941Z,99.90
2019-05-23T01:34:05.650Z,99.90
2019-05-23T01:36:38.018Z,99.90
2019-05-23T01:39:11.803Z,99.90
2019-05-23T01:41:44.031Z,99.90
2019-05-23T01:44:16.236Z,99.90
2019-05-23T01:46:53.013Z,99.90
2019-05-23T01:49:29.625Z,99.90
2019-05-23T01:51:59.919Z,99.90
2019-05-23T01:54:36.509Z,99.90
2019-05-23T01:57:07.261Z,99.90
2019-05-23T01:59:37.882Z,99.90
2019-05-23T02:02:08.510Z,99.90
2019-05-23T02:04:39.704Z,99.90
2019-05-23T02:07:10.659Z,99.90
2019-05-23T02:09:41.799Z,99.90
2019-05-23T02:12:13.995Z,99.90
2019-05-23T02:14:52.018Z,99.90
2019-05-23T02:17:22.534Z,99.90
2019-05-23T02:20:01.640Z,99.90
2019-05-23T02:22:32.110Z,99.90
2019-05-23T02:25:04.624Z,99.90
2019-05-23T02:27:36.911Z,99.90
2019-05-23T02:30:30.187Z,99.90
2019-05-23T02:32:43.643Z,99.90
2019-05-23T02:35:15.296Z,99.90
2019-05-23T02:37:50.266Z,99.90
2019-05-23T02:40:29.435Z,99.90
2019-05-23T02:43:05.951Z,99.90
2019-05-23T02:45:43.552Z,99.90
2019-05-23T02:48:18.713Z,99.90
2019-05-23T02:51:00.009Z,99.90
2019-05-23T02:53:37.522Z,99.90
2019-05-23T02:56:16.982Z,99.90
2019-05-23T02:59:30.762Z,99.90
2019-05-23T03:02:31.139Z,99.90
2019-05-23T03:05:03.159Z,99.90
2019-05-23T03:07:35.936Z,99.90
2019-05-23T03:10:09.562Z,99.90
2019-05-23T03:12:49.456Z,99.90
2019-05-23T03:15:21.575Z,99.90
2019-05-23T03:17:55.617Z,99.90
2019-05-23T03:20:29.346Z,99.90
2019-05-23T03:23:15.523Z,99.90
2019-05-23T03:26:05.190Z,99.90
2019-05-23T03:28:40.581Z,99.90
2019-05-23T03:31:28.496Z,99.90
2019-05-23T03:33:47.585Z,99.90
2019-05-23T03:36:25.542Z,99.90
2019-05-23T03:38:56.563Z,99.90
2019-05-23T03:41:28.241Z,99.90
2019-05-23T03:43:58.619Z,99.90
2019-05-23T03:46:30.350Z,99.90
2019-05-23T03:49:08.887Z,99.90
2019-05-23T03:51:40.954Z,99.90
2019-05-23T03:54:14.054Z,99.90
2019-05-23T03:56:48.975Z,99.90
2019-05-23T03:59:22.155Z,99.90
2019-05-23T04:01:59.774Z,99.90
2019-05-23T04:04:37.488Z,99.90
2019-05-23T04:07:08.847Z,99.90
2019-05-23T04:09:42.151Z,99.90
2019-05-23T04:12:12.305Z,99.90
2019-05-23T04:14:57.580Z,99.90
2019-05-23T04:17:28.106Z,99.90
2019-05-23T04:19:58.319Z,99.90
2019-05-23T04:22:36.266Z,99.90
2019-05-23T04:25:08.795Z,99.90
2019-05-23T04:27:41.170Z,99.90
2019-05-23T04:30:13.169Z,99.90
2019-05-23T04:32:46.723Z,99.90
2019-05-23T04:35:18.442Z,99.90
2019-05-23T04:37:54.726Z,99.90
2019-05-23T04:40:26.002Z,99.90
2019-05-23T04:43:02.123Z,99.90
2019-05-23T04:45:35.078Z,99.90
2019-05-23T04:48:06.778Z,99.90
2019-05-23T04:50:37.421Z,99.90
2019-05-23T04:53:08.477Z,99.90
2019-05-23T04:55:39.428Z,99.90
2019-05-23T04:58:10.945Z,99.90
2019-05-23T05:00:41.192Z,99.90
2019-05-23T05:03:17.586Z,99.90
2019-05-23T05:05:47.740Z,99.90
2019-05-23T05:08:17.835Z,99.90
2019-05-23T05:10:54.550Z,99.90
2019-05-23T05:13:26.084Z,99.90
2019-05-23T05:15:57.229Z,99.90
2019-05-23T05:18:27.325Z,99.90
2019-05-23T05:20:58.350Z,99.90
2019-05-23T05:23:34.423Z,99.90
2019-05-23T05:26:06.486Z,99.90
2019-05-23T05:28:42.064Z,99.90
2019-05-23T05:31:18.343Z,99.90
2019-05-23T05:33:48.498Z,99.90
2019-05-23T05:36:20.849Z,99.90
2019-05-23T05:38:51.163Z,99.90
2019-05-23T05:41:23.546Z,99.90
2019-05-23T05:43:55.046Z,99.90
2019-05-23T05:46:25.651Z,99.90
2019-05-23T05:48:56.719Z,99.90
2019-05-23T05:51:28.113Z,99.90
2019-05-23T05:53:58.835Z,99.90
2019-05-23T05:56:28.927Z,99.90
2019-05-23T05:58:59.111Z,99.90
2019-05-23T06:01:33.752Z,99.90
2019-05-23T06:04:04.091Z,99.90
2019-05-23T06:06:35.892Z,99.90
2019-05-23T06:09:13.158Z,99.90
2019-05-23T06:11:46.655Z,99.90
2019-05-23T06:14:18.708Z,99.90
2019-05-23T06:16:49.985Z,99.90
2019-05-23T06:19:21.896Z,99.90
2019-05-23T06:21:53.867Z,99.90
2019-05-23T06:24:41.740Z,99.90
2019-05-23T06:26:56.394Z,99.90
2019-05-23T06:29:26.519Z,99.90
2019-05-23T06:31:57.522Z,99.90
2019-05-23T06:34:27.703Z,99.90
2019-05-23T06:37:01.755Z,99.90
2019-05-23T06:39:32.551Z,99.90
2019-05-23T06:42:02.787Z,99.90
2019-05-23T06:44:35.880Z,99.90
2019-05-23T06:47:09.739Z,99.90
2019-05-23T06:49:42.795Z,99.90
2019-05-23T06:52:13.635Z,99.90
2019-05-23T06:54:44.735Z,99.90
2019-05-23T06:57:17.332Z,99.90
2019-05-23T06:59:47.594Z,99.90
2019-05-23T07:02:18.033Z,99.90
2019-05-23T07:04:56.175Z,99.90
2019-05-23T07:07:29.277Z,99.90
2019-05-23T07:10:00.042Z,99.90
2019-05-23T07:12:33.144Z,99.90
2019-05-23T07:15:12.700Z,99.90
2019-05-23T07:17:43.034Z,99.90
2019-05-23T07:20:15.602Z,99.90
2019-05-23T07:22:46.019Z,99.90
2019-05-23T07:25:16.740Z,99.90
2019-05-23T07:27:46.990Z,99.90
2019-05-23T07:30:22.800Z,99.90
2019-05-23T07:32:53.794Z,98.50
2019-05-23T07:35:30.818Z,97.10
2019-05-23T07:38:00.956Z,94.80
2019-05-23T07:40:37.286Z,92.30
2019-05-23T07:43:08.294Z,90.60
2019-05-23T07:45:41.042Z,84.50
2019-05-23T07:48:14.987Z,74.30
2019-05-23T07:50:46.400Z,66.20
2019-05-23T07:53:30.349Z,56.00
2019-05-23T07:56:11.236Z,62.20
2019-05-23T07:58:42.356Z,63.10
2019-05-23T08:01:14.255Z,61.10
2019-05-23T08:03:53.860Z,61.60
2019-05-23T08:06:24.317Z,59.60
2019-05-23T08:08:59.000Z,58.50
2019-05-23T08:11:36.836Z,57.60
2019-05-23T08:14:11.837Z,56.00
2019-05-23T08:16:42.150Z,56.10
2019-05-23T08:19:23.410Z,55.60
2019-05-23T08:21:53.638Z,55.30
2019-05-23T08:24:24.808Z,55.50
2019-05-23T08:26:56.783Z,55.60
2019-05-23T08:29:38.748Z,54.90
2019-05-23T08:32:09.856Z,54.30
2019-05-23T08:34:46.230Z,52.10
2019-05-23T08:37:16.699Z,49.30
2019-05-23T08:39:48.615Z,49.10
2019-05-23T08:42:22.297Z,49.00
2019-05-23T08:44:54.426Z,47.70
2019-05-23T08:47:24.962Z,45.70
2019-05-23T08:49:57.042Z,45.20
2019-05-23T08:52:30.771Z,45.40
2019-05-23T08:55:21.997Z,43.80
2019-05-23T08:57:58.959Z,42.40
2019-05-23T09:00:31.979Z,44.70
2019-05-23T09:03:05.444Z,45.00
2019-05-23T09:05:38.494Z,47.10
2019-05-23T09:08:11.307Z,47.30
2019-05-23T09:10:50.542Z,46.80
2019-05-23T09:13:27.666Z,44.80
2019-05-23T09:15:57.817Z,44.60
2019-05-23T09:18:34.250Z,44.90
2019-05-23T09:21:04.852Z,44.20
2019-05-23T09:23:35.000Z,44.00
2019-05-23T09:26:05.726Z,45.80
2019-05-23T09:28:35.915Z,44.90
2019-05-23T09:31:06.886Z,45.20
2019-05-23T09:33:37.033Z,46.20
2019-05-23T09:36:07.858Z,45.00
2019-05-23T09:38:41.285Z,44.70
2019-05-23T09:41:12.403Z,42.40
2019-05-23T09:43:48.298Z,41.00
2019-05-23T09:46:18.615Z,40.00
2019-05-23T09:48:48.795Z,38.20
2019-05-23T09:51:22.419Z,37.00
2019-05-23T09:53:52.495Z,36.00
2019-05-23T09:56:22.574Z,34.10
2019-05-23T09:58:52.651Z,33.20
2019-05-23T10:01:24.963Z,33.20
2019-05-23T10:03:56.556Z,33.30
2019-05-23T10:06:27.562Z,34.30
2019-05-23T10:08:58.766Z,34.20
2019-05-23T10:11:35.695Z,33.20
2019-05-23T10:14:19.524Z,35.80
2019-05-23T10:16:54.715Z,37.60
2019-05-23T10:19:24.904Z,37.70
2019-05-23T10:22:01.150Z,36.80
2019-05-23T10:24:31.229Z,35.20
2019-05-23T10:27:09.276Z,34.30
2019-05-23T10:29:39.422Z,35.10
2019-05-23T10:32:12.015Z,35.60
2019-05-23T10:34:42.442Z,36.90
2019-05-23T10:37:14.256Z,39.00
2019-05-23T10:39:53.837Z,40.00
2019-05-23T10:42:32.962Z,41.60
2019-05-23T10:45:08.822Z,41.10
2019-05-23T10:47:44.756Z,42.00
2019-05-23T10:50:15.146Z,41.30
2019-05-23T10:52:47.387Z,39.50
2019-05-23T10:55:23.639Z,35.80
2019-05-23T10:57:54.723Z,34.00
2019-05-23T11:00:32.537Z,32.70
2019-05-23T11:03:02.813Z,32.00
2019-05-23T11:05:33.051Z,31.20
2019-05-23T11:08:06.040Z,33.10
2019-05-23T11:10:37.169Z,30.30
2019-05-23T11:13:07.760Z,28.60
2019-05-23T11:15:39.218Z,30.40
2019-05-23T11:18:10.841Z,29.10
2019-05-23T11:20:41.924Z,28.40
2019-05-23T11:23:14.730Z,28.90
2019-05-23T11:25:45.173Z,29.20
2019-05-23T11:28:23.001Z,28.80
2019-05-23T11:30:58.808Z,28.60
2019-05-23T11:33:29.503Z,27.20
2019-05-23T11:36:00.509Z,27.10
2019-05-23T11:38:31.327Z,28.80
2019-05-23T11:41:01.501Z,29.50
2019-05-23T11:43:31.649Z,28.90
2019-05-23T11:46:18.740Z,29.90
2019-05-23T11:48:51.009Z,31.10
2019-05-23T11:51:25.132Z,31.90
2019-05-23T11:54:06.528Z,30.20
2019-05-23T11:56:24.940Z,31.20
2019-05-23T11:59:00.636Z,31.30
2019-05-23T12:01:29.652Z,31.50
2019-05-23T12:04:02.339Z,32.80
2019-05-23T12:06:53.713Z,32.40
2019-05-23T12:09:08.643Z,32.60
2019-05-23T12:11:42.831Z,30.70
2019-05-23T12:14:14.959Z,30.00
2019-05-23T12:17:01.338Z,30.80
2019-05-23T12:19:32.497Z,31.00
2019-05-23T12:22:02.639Z,30.00
2019-05-23T12:24:35.524Z,30.10
2019-05-23T12:27:04.974Z,29.10
2019-05-23T12:29:41.131Z,28.40
2019-05-23T12:32:12.916Z,27.90
2019-05-23T12:35:08.534Z,28.20
2019-05-23T12:37:21.035Z,28.60
2019-05-23T12:39:54.091Z,28.40
2019-05-23T12:42:24.180Z,28.40
2019-05-23T12:44:54.269Z,28.40
2019-05-23T12:47:31.059Z,28.50
2019-05-23T12:50:07.959Z,29.60
2019-05-23T12:52:39.084Z,28.00
2019-05-23T12:55:09.768Z,27.60
2019-05-23T12:57:39.939Z,28.10
2019-05-23T13:00:12.263Z,28.90
2019-05-23T13:02:42.653Z,27.50
2019-05-23T13:05:12.944Z,27.20
2019-05-23T13:07:43.474Z,26.20
2019-05-23T13:10:14.689Z,27.80
2019-05-23T13:12:45.038Z,29.30
2019-05-23T13:15:15.423Z,31.20
2019-05-23T13:17:45.612Z,33.00
2019-05-23T13:20:17.265Z,34.10
2019-05-23T13:22:48.376Z,35.10
2019-05-23T13:25:19.507Z,34.30
2019-05-23T13:27:49.603Z,32.30
2019-05-23T13:30:20.122Z,29.20
2019-05-23T13:32:50.469Z,28.10
2019-05-23T13:35:21.991Z,27.20
2019-05-23T13:37:54.239Z,27.50
2019-05-23T13:40:29.985Z,29.00
2019-05-23T13:43:12.006Z,31.30
2019-05-23T13:45:43.278Z,32.40
2019-05-23T13:48:14.264Z,31.60
2019-05-23T13:50:44.630Z,31.10
2019-05-23T13:53:14.718Z,29.70
2019-05-23T13:55:44.873Z,29.70
2019-05-23T13:58:15.291Z,28.90
2019-05-23T14:00:45.439Z,28.60
2019-05-23T14:03:16.605Z,28.00
2019-05-23T14:05:46.931Z,28.10
2019-05-23T14:08:23.559Z,28.70
2019-05-23T14:10:53.713Z,29.50
2019-05-23T14:13:28.200Z,30.00
2019-05-23T14:15:58.753Z,29.50
2019-05-23T14:18:30.197Z,28.90
2019-05-23T14:21:09.727Z,28.30
2019-05-23T14:23:40.743Z,29.10
2019-05-23T14:26:12.138Z,29.00
2019-05-23T14:28:50.018Z,28.70
2019-05-23T14:31:20.183Z,28.80
2019-05-23T14:34:03.739Z,29.50
2019-05-23T14:36:49.677Z,29.50
2019-05-23T14:39:26.064Z,28.90
2019-05-23T14:41:58.921Z,28.50
2019-05-23T14:44:29.015Z,27.90
2019-05-23T14:47:15.633Z,27.70
2019-05-23T14:49:59.241Z,28.20
2019-05-23T14:52:40.289Z,29.50
2019-05-23T14:55:13.688Z,31.70
2019-05-23T14:57:43.859Z,33.20
2019-05-23T15:00:14.807Z,33.90
2019-05-23T15:02:48.100Z,34.40
2019-05-23T15:05:18.235Z,33.90
2019-05-23T15:07:48.461Z,33.80
2019-05-23T15:10:19.859Z,35.00
2019-05-23T15:12:50.035Z,35.20
2019-05-23T15:15:21.211Z,34.30
2019-05-23T15:17:52.408Z,34.90
2019-05-23T15:20:24.479Z,35.90
2019-05-23T15:23:00.164Z,36.50
2019-05-23T15:25:30.473Z,36.60
2019-05-23T15:28:02.546Z,36.30
2019-05-23T15:30:34.624Z,35.40
2019-05-23T15:33:05.119Z,35.00
2019-05-23T15:35:37.272Z,35.60
2019-05-23T15:38:07.517Z,36.50
2019-05-23T15:40:37.725Z,37.40
2019-05-23T15:43:09.935Z,37.50
2019-05-23T15:45:40.531Z,37.80
2019-05-23T15:48:11.713Z,39.00
2019-05-23T15:50:49.201Z,39.30
2019-05-23T15:53:37.825Z,40.00
2019-05-23T15:56:25.885Z,40.40
2019-05-23T15:58:45.591Z,41.50
2019-05-23T16:01:17.755Z,41.20
2019-05-23T16:03:55.666Z,40.40
2019-05-23T16:06:27.890Z,40.40
2019-05-23T16:08:59.452Z,39.40
2019-05-23T16:11:31.492Z,37.30
2019-05-23T16:14:01.580Z,36.60
2019-05-23T16:16:34.368Z,35.90
2019-05-23T16:19:05.633Z,35.60
2019-05-23T16:21:38.519Z,34.90
2019-05-23T16:24:11.435Z,34.40
2019-05-23T16:26:52.379Z,34.20
2019-05-23T16:29:24.100Z,33.90
2019-05-23T16:32:06.510Z,34.00
2019-05-23T16:34:38.645Z,33.70
2019-05-23T16:37:09.714Z,33.50
2019-05-23T16:39:48.519Z,33.40
2019-05-23T16:42:18.303Z,34.30
2019-05-23T16:44:48.555Z,34.40
2019-05-23T16:47:18.661Z,34.20
2019-05-23T16:49:48.836Z,34.90
2019-05-23T16:52:18.899Z,35.10
2019-05-23T16:54:50.660Z,34.80
2019-05-23T16:57:22.630Z,35.00
2019-05-23T16:59:54.508Z,35.60
2019-05-23T17:02:29.743Z,36.60
2019-05-23T17:05:16.544Z,36.10
2019-05-23T17:08:11.320Z,36.10
2019-05-23T17:10:55.460Z,37.00
2019-05-23T17:13:29.861Z,36.70
2019-05-23T17:16:09.257Z,37.60
2019-05-23T17:18:44.591Z,37.90
2019-05-23T17:21:19.307Z,37.80
2019-05-23T17:24:03.752Z,38.20
2019-05-23T17:26:40.510Z,38.40
2019-05-23T17:29:14.198Z,39.00
2019-05-23T17:31:51.993Z,39.90
2019-05-23T17:34:22.313Z,39.70
2019-05-23T17:36:55.471Z,40.10
2019-05-23T17:39:25.616Z,39.90
2019-05-23T17:41:55.782Z,41.20
2019-05-23T17:44:49.159Z,40.90
2019-05-23T17:47:21.332Z,40.70
2019-05-23T17:49:53.418Z,39.80
2019-05-23T17:52:26.199Z,40.50
2019-05-23T17:54:56.404Z,39.70
2019-05-23T17:57:30.061Z,40.40
2019-05-23T18:00:00.283Z,40.80
2019-05-23T18:02:36.964Z,41.40
2019-05-23T18:05:14.224Z,41.50
2019-05-23T18:07:45.596Z,41.60
2019-05-23T18:10:16.518Z,41.80
2019-05-23T18:12:54.856Z,41.70
2019-05-23T18:15:25.601Z,42.80
2019-05-23T18:17:58.748Z,43.40
2019-05-23T18:20:30.185Z,44.80
2019-05-23T18:23:00.335Z,45.60
2019-05-23T18:25:31.244Z,46.60
2019-05-23T18:28:02.716Z,47.40
2019-05-23T18:30:43.052Z,48.40
2019-05-23T18:33:14.840Z,49.00
2019-05-23T18:35:45.496Z,49.70
2019-05-23T18:38:16.840Z,50.10
2019-05-23T18:41:01.582Z,50.80
2019-05-23T18:43:18.965Z,51.60
2019-05-23T18:45:50.829Z,52.20
2019-05-23T18:48:30.884Z,52.70
2019-05-23T18:51:09.364Z,53.60
2019-05-23T18:53:43.738Z,54.90
2019-05-23T18:56:14.390Z,56.60
2019-05-23T18:58:44.828Z,59.40
2019-05-23T19:01:16.673Z,63.80
2019-05-23T19:03:46.923Z,68.60
2019-05-23T19:06:22.808Z,74.80
2019-05-23T19:08:54.388Z,81.10
2019-05-23T19:11:24.752Z,87.90
2019-05-23T19:13:56.005Z,92.10
2019-05-23T19:16:28.232Z,97.00
2019-05-23T19:19:01.120Z,99.90
2019-05-23T19:21:33.701Z,99.90
2019-05-23T19:24:06.256Z,99.90
2019-05-23T19:26:36.933Z,99.90
2019-05-23T19:29:23.172Z,99.90
2019-05-23T19:31:54.064Z,99.90
2019-05-23T19:34:27.284Z,99.90
2019-05-23T19:36:58.514Z,99.90
2019-05-23T19:39:28.769Z,99.90
2019-05-23T19:42:14.696Z,99.90
2019-05-23T19:44:44.778Z,99.90
2019-05-23T19:47:18.145Z,99.90
2019-05-23T19:49:48.341Z,99.90
2019-05-23T19:52:18.624Z,99.90
2019-05-23T19:54:56.106Z,99.90
2019-05-23T19:57:26.608Z,99.90
2019-05-23T19:59:56.693Z,99.90
2019-05-23T20:02:37.509Z,99.90
2019-05-23T20:05:25.656Z,99.90
2019-05-23T20:08:06.159Z,99.90
2019-05-23T20:10:39.429Z,99.90
2019-05-23T20:13:10.989Z,99.90
2019-05-23T20:15:45.387Z,99.90
2019-05-23T20:18:13.552Z,99.90
2019-05-23T20:20:43.738Z,99.90
2019-05-23T20:23:16.016Z,99.90
2019-05-23T20:25:48.825Z,99.90
2019-05-23T20:28:19.017Z,99.90
2019-05-23T20:30:52.519Z,99.90
2019-05-23T20:33:26.066Z,99.90
2019-05-23T20:35:58.813Z,99.90
2019-05-23T20:38:29.944Z,99.90
2019-05-23T20:41:00.039Z,99.90
2019-05-23T20:43:30.133Z,99.90
2019-05-23T20:46:00.466Z,99.90
2019-05-23T20:48:30.867Z,99.90
2019-05-23T20:51:01.913Z,99.90
2019-05-23T20:53:35.896Z,99.90
2019-05-23T20:56:07.108Z,99.90
2019-05-23T20:58:39.208Z,99.90
2019-05-23T21:01:22.589Z,99.90
2019-05-23T21:03:54.610Z,99.90
2019-05-23T21:06:24.930Z,99.90
2019-05-23T21:08:59.977Z,99.90
2019-05-23T21:11:31.005Z,99.90
2019-05-23T21:14:02.124Z,99.90
2019-05-23T21:16:33.178Z,99.90
2019-05-23T21:19:03.262Z,99.90
2019-05-23T21:21:33.342Z,99.90
2019-05-23T21:24:04.608Z,99.90
2019-05-23T21:26:35.871Z,99.90
2019-05-23T21:29:05.963Z,99.90
2019-05-23T21:31:36.134Z,99.90
2019-05-23T21:34:06.232Z,99.90
2019-05-23T21:36:38.244Z,99.90
2019-05-23T21:39:09.984Z,99.90
2019-05-23T21:41:40.408Z,99.90
2019-05-23T21:44:11.592Z,99.90
2019-05-23T21:46:43.655Z,99.90
2019-05-23T21:49:14.887Z,99.90
2019-05-23T21:51:51.817Z,99.90
2019-05-23T21:54:22.818Z,99.90
2019-05-23T21:56:57.616Z,99.90
2019-05-23T21:59:27.902Z,99.90
2019-05-23T22:02:13.490Z,99.90
2019-05-23T22:04:45.209Z,99.90
2019-05-23T22:07:15.316Z,99.90
2019-05-23T22:09:45.676Z,99.90
2019-05-23T22:12:17.820Z,99.90
2019-05-23T22:14:48.050Z,99.90
2019-05-23T22:17:19.857Z,99.90
2019-05-23T22:19:51.916Z,99.90
2019-05-23T22:22:22.948Z,99.90
2019-05-23T22:24:54.002Z,99.90
2019-05-23T22:27:25.672Z,99.90
2019-05-23T22:30:02.989Z,99.90
2019-05-23T22:32:33.719Z,99.90
2019-05-23T22:35:11.477Z,99.90
2019-05-23T22:37:44.624Z,99.90
2019-05-23T22:40:21.555Z,99.90
2019-05-23T22:42:53.248Z,99.90
2019-05-23T22:45:27.627Z,99.90
2019-05-23T22:48:04.228Z,99.90
2019-05-23T22:50:34.392Z,99.90
2019-05-23T22:53:05.484Z,99.90
2019-05-23T22:55:36.484Z,99.90
2019-05-23T22:58:07.406Z,99.90
2019-05-23T23:00:43.132Z,99.90
2019-05-23T23:03:19.274Z,99.90
2019-05-23T23:05:49.981Z,99.90
2019-05-23T23:08:20.609Z,99.90
2019-05-23T23:11:05.881Z,99.90
2019-05-23T23:13:43.193Z,99.90
2019-05-23T23:16:13.844Z,99.90
2019-05-23T23:18:45.060Z,99.90
2019-05-23T23:21:17.105Z,99.90
2019-05-23T23:23:48.173Z,99.90
2019-05-23T23:26:18.330Z,99.90
2019-05-23T23:28:50.409Z,99.90
2019-05-23T23:31:27.593Z,99.90
2019-05-23T23:33:59.778Z,99.90
2019-05-23T23:36:29.889Z,99.90
2019-05-23T23:39:08.099Z,99.90
2019-05-23T23:41:44.381Z,99.90
2019-05-23T23:44:15.440Z,99.90
2019-05-23T23:47:02.901Z,99.90
2019-05-23T23:49:54.800Z,99.90
2019-05-23T23:52:43.100Z,99.90
2019-05-23T23:55:30.956Z,99.90
2019-05-23T23:58:00.435Z,99.90
